Delta Virtual Airport Information Service

San Jose International Airport

ICAO: KSJC Country: United States
Latitude: 37.3627 Longitude: -121.929
Latest Arrival : DAL1143 (1A) (KSLC-KSJC) Latest Departure : SKW3418 (KSJC-KLAX)


WX CaptureLIVE
Data provided by noaa.gov | Fetched at 23:28:04

METAR : KSJC 060353Z 35008KT 10SM CLR 19/09 A2996 RMK AO2 SLP144 T01940089

TAF :


Runway Data for KSJC
Data provided by openaviationdata.com

Runway ID Mag Var Hdg Length Elevation Surface ILS Freq ILS Id ILS Slope
11 16 122° 4600 ft 62 ft Asphalt -- -- --
12L 16 122° 11003 ft 62 ft Concrete -- -- --
12R 16 122° 11002 ft 62 ft Concrete 110.9 ISLV 3
29 16 302° 4600 ft 62 ft Asphalt -- -- --
30L 16 302° 11002 ft 62 ft Concrete 110.9 ISJC 3
30R 16 302° 11003 ft 62 ft Concrete -- -- --

San Jose International Airport, United States
Use only for reference purposes



Not for navigational purposes.